Time;durP1;ratioP1;P1;durP2;ratioP2;P2;SDS_P1;SDS_P2;PMS_P1;PMS_P2;Temp;Humidity;BMP_temperature;BMP_pressure;BME280_temperature;BME280_humidity;BME280_pressure;Samples;Min_cycle;Max_cycle;Signal;HPM_P1;HPM_P2
2020/12/24 00:00:21;;;;;;;;;;;11.40;73.50;;;;;;5012929;28;19984;-45
2020/12/24 00:02:49;;;;;;;;;;;11.30;73.90;;;;;;5013975;28;19929;-44
2020/12/24 00:05:18;;;;;;;;;;;11.30;73.20;;;;;;5014267;28;19931;-43
2020/12/24 00:07:45;;;;;;;;;;;11.30;72.80;;;;;;5010261;28;21113;-43
2020/12/24 00:10:12;;;;;;;;;;;11.20;73.40;;;;;;5011525;28;19930;-43
2020/12/24 00:12:39;;;;;;;;;;;11.20;73.30;;;;;;5011815;28;19929;-44
2020/12/24 00:15:10;;;;;;;;;;;11.20;73.50;;;;;;5010230;28;20022;-46
2020/12/24 00:17:37;;;;;;;;;;;11.20;73.70;;;;;;5011060;28;19951;-45
2020/12/24 00:20:05;;;;;;;;;;;11.20;74.30;;;;;;5014259;28;19932;-43
2020/12/24 00:22:34;;;;;;;;;;;11.10;73.60;;;;;;5010837;28;19925;-45
2020/12/24 00:25:03;;;;;;;;;;;11.00;74.30;;;;;;5013697;28;19929;-45
2020/12/24 00:27:30;;;;;;;;;;;11.00;74.70;;;;;;5010594;28;19929;-45
2020/12/24 00:29:57;;;;;;;;;;;11.00;74.60;;;;;;5013877;28;19933;-45
2020/12/24 00:32:24;;;;;;;;;;;11.00;75.00;;;;;;5013217;28;19925;-43
2020/12/24 00:34:51;;;;;;;;;;;11.00;74.90;;;;;;5014736;28;19933;-46
2020/12/24 00:37:25;;;;;;;;;;;11.00;75.10;;;;;;5014771;28;20011;-43
2020/12/24 00:39:52;;;;;;;;;;;10.90;74.30;;;;;;5013655;28;19933;-45
2020/12/24 00:42:21;;;;;;;;;;;10.90;74.70;;;;;;5012351;28;19929;-44
2020/12/24 00:44:48;;;;;;;;;;;10.80;74.60;;;;;;5013261;28;20377;-43
2020/12/24 00:47:15;;;;;;;;;;;10.80;74.70;;;;;;5011500;28;19925;-45
2020/12/24 00:49:43;;;;;;;;;;;10.70;74.50;;;;;;5012644;28;20012;-43
2020/12/24 00:52:11;;;;;;;;;;;10.60;75.00;;;;;;5009091;28;19933;-45
2020/12/24 00:54:38;;;;;;;;;;;10.60;74.80;;;;;;5011498;28;20032;-43
2020/12/24 00:57:05;;;;;;;;;;;10.60;75.20;;;;;;5014627;28;19975;-44
2020/12/24 00:59:33;;;;;;;;;;;10.60;75.50;;;;;;5011805;28;20316;-43
2020/12/24 01:02:01;;;;;;;;;;;10.60;74.70;;;;;;5011668;28;20497;-44
2020/12/24 01:04:29;;;;;;;;;;;10.60;75.40;;;;;;5013458;28;20332;-45
2020/12/24 01:06:56;;;;;;;;;;;10.60;75.90;;;;;;5013415;28;20412;-44
2020/12/24 01:09:23;;;;;;;;;;;10.50;75.80;;;;;;5013739;28;19940;-46
2020/12/24 01:11:51;;;;;;;;;;;10.60;75.60;;;;;;5014471;28;20387;-44
2020/12/24 01:14:20;;;;;;;;;;;10.50;75.30;;;;;;5007884;28;19933;-45
2020/12/24 01:16:50;;;;;;;;;;;10.50;76.00;;;;;;5017357;28;19936;-43
2020/12/24 01:19:17;;;;;;;;;;;10.50;75.70;;;;;;5008648;28;20393;-42
2020/12/24 01:21:48;;;;;;;;;;;10.40;75.90;;;;;;5012862;28;20393;-44
2020/12/24 01:24:15;;;;;;;;;;;10.40;76.10;;;;;;5008140;28;19948;-46
2020/12/24 01:26:49;;;;;;;;;;;10.40;75.70;;;;;;5013662;28;20304;-44
2020/12/24 01:29:18;;;;;;;;;;;10.40;75.50;;;;;;5009558;28;19929;-45
2020/12/24 01:31:45;;;;;;;;;;;10.30;75.30;;;;;;5009042;28;19939;-46
2020/12/24 01:34:16;;;;;;;;;;;10.30;75.30;;;;;;5007958;28;19929;-44
2020/12/24 01:36:43;;;;;;;;;;;10.20;75.50;;;;;;5012419;28;20316;-45
2020/12/24 01:39:11;;;;;;;;;;;10.20;75.50;;;;;;5014609;28;19932;-44
2020/12/24 01:41:39;;;;;;;;;;;10.20;76.00;;;;;;5011031;28;20016;-45
2020/12/24 01:44:06;;;;;;;;;;;10.20;75.50;;;;;;5012060;28;19934;-44
2020/12/24 01:46:33;;;;;;;;;;;10.20;75.60;;;;;;5010578;28;19930;-45
2020/12/24 01:49:17;;;;;;;;;;;10.20;74.90;;;;;;5010913;28;19961;-46
2020/12/24 01:51:48;;;;;;;;;;;10.20;75.30;;;;;;5011026;28;19930;-45
2020/12/24 01:54:17;;;;;;;;;;;10.20;75.50;;;;;;5010638;28;19934;-43
2020/12/24 01:56:44;;;;;;;;;;;10.20;75.20;;;;;;5011120;28;19979;-45
2020/12/24 01:59:15;;;;;;;;;;;10.20;75.70;;;;;;5009165;28;19933;-43
2020/12/24 02:01:45;;;;;;;;;;;10.20;75.30;;;;;;5009951;28;19929;-43
2020/12/24 02:04:15;;;;;;;;;;;10.20;74.20;;;;;;5009015;28;20008;-45
2020/12/24 02:06:43;;;;;;;;;;;10.10;75.20;;;;;;5027752;28;19960;-45
2020/12/24 02:09:10;;;;;;;;;;;10.20;74.30;;;;;;5006872;28;19961;-44
2020/12/24 02:11:39;;;;;;;;;;;10.10;74.50;;;;;;5008986;28;19936;-45
2020/12/24 02:14:06;;;;;;;;;;;10.20;74.80;;;;;;5010368;28;20397;-44
2020/12/24 02:16:34;;;;;;;;;;;10.10;74.40;;;;;;5011805;28;19933;-46
2020/12/24 02:19:02;;;;;;;;;;;10.10;74.50;;;;;;5009793;28;20357;-45
2020/12/24 02:21:30;;;;;;;;;;;10.10;75.10;;;;;;5006544;28;19932;-45
2020/12/24 02:23:57;;;;;;;;;;;10.10;74.90;;;;;;5010957;28;19937;-45
2020/12/24 02:26:25;;;;;;;;;;;10.00;74.80;;;;;;5006590;28;19929;-46
2020/12/24 02:28:52;;;;;;;;;;;9.90;75.40;;;;;;5007901;28;19925;-45
2020/12/24 02:31:20;;;;;;;;;;;9.90;75.80;;;;;;5013509;28;19933;-45
2020/12/24 02:33:47;;;;;;;;;;;9.90;76.00;;;;;;5013284;28;19929;-44
2020/12/24 02:36:14;;;;;;;;;;;10.00;76.40;;;;;;5010610;28;20408;-46
2020/12/24 02:38:42;;;;;;;;;;;10.00;75.50;;;;;;5013266;28;19929;-45
2020/12/24 02:41:12;;;;;;;;;;;9.90;75.70;;;;;;5010143;28;19925;-45
2020/12/24 02:43:40;;;;;;;;;;;10.00;75.70;;;;;;5009583;28;19933;-46
2020/12/24 02:46:07;;;;;;;;;;;9.90;75.60;;;;;;5011983;28;19929;-43
2020/12/24 02:48:35;;;;;;;;;;;9.90;75.60;;;;;;5010885;28;19960;-44
2020/12/24 02:51:02;;;;;;;;;;;9.90;75.80;;;;;;5015625;28;19933;-43
2020/12/24 02:53:29;;;;;;;;;;;9.80;75.40;;;;;;5014535;28;19932;-45
2020/12/24 02:55:56;;;;;;;;;;;9.80;76.00;;;;;;5012210;28;19933;-45
2020/12/24 02:58:23;;;;;;;;;;;9.80;76.20;;;;;;5016213;28;19926;-45
2020/12/24 03:00:51;;;;;;;;;;;9.80;76.50;;;;;;5016967;28;20288;-44
2020/12/24 03:03:20;;;;;;;;;;;9.80;76.10;;;;;;5017537;28;20392;-45
2020/12/24 03:05:47;;;;;;;;;;;9.70;76.40;;;;;;5013758;28;19929;-46
2020/12/24 03:08:17;;;;;;;;;;;9.60;75.60;;;;;;5011887;28;19933;-43
2020/12/24 03:10:45;;;;;;;;;;;9.60;75.30;;;;;;5014513;28;20435;-46
2020/12/24 03:13:15;;;;;;;;;;;9.60;75.80;;;;;;5013813;28;19925;-45
2020/12/24 03:15:42;;;;;;;;;;;9.50;75.20;;;;;;5017179;28;19926;-44
2020/12/24 03:18:11;;;;;;;;;;;9.40;75.90;;;;;;5016195;28;19980;-44
2020/12/24 03:20:38;;;;;;;;;;;9.40;75.50;;;;;;5016918;28;19963;-45
2020/12/24 03:23:05;;;;;;;;;;;9.40;75.70;;;;;;5013647;28;19972;-43
2020/12/24 03:25:32;;;;;;;;;;;9.40;75.50;;;;;;5018303;28;19937;-46
2020/12/24 03:27:59;;;;;;;;;;;9.40;75.20;;;;;;5020982;28;19933;-45
2020/12/24 03:30:26;;;;;;;;;;;9.40;74.80;;;;;;5012044;28;19964;-42
2020/12/24 03:32:53;;;;;;;;;;;9.40;74.70;;;;;;5018284;28;20576;-45
2020/12/24 03:35:21;;;;;;;;;;;9.40;75.30;;;;;;5013000;28;20004;-45
2020/12/24 03:37:49;;;;;;;;;;;9.40;75.00;;;;;;5014006;28;19960;-45
2020/12/24 03:40:15;;;;;;;;;;;9.40;75.60;;;;;;5015091;28;19940;-44
2020/12/24 03:42:46;;;;;;;;;;;9.40;75.20;;;;;;5012974;28;19925;-45
2020/12/24 03:45:13;;;;;;;;;;;9.40;75.20;;;;;;5018366;28;19991;-42
2020/12/24 03:47:40;;;;;;;;;;;9.40;75.00;;;;;;5016143;28;20292;-43
2020/12/24 03:50:07;;;;;;;;;;;9.40;76.00;;;;;;5012902;28;20015;-46
2020/12/24 03:52:34;;;;;;;;;;;9.50;76.20;;;;;;5017665;28;19933;-46
2020/12/24 03:55:02;;;;;;;;;;;9.50;76.20;;;;;;5013519;28;19925;-46
2020/12/24 03:57:29;;;;;;;;;;;9.50;76.10;;;;;;5013213;28;19933;-47
2020/12/24 04:00:00;;;;;;;;;;;9.50;76.30;;;;;;5009806;28;19937;-45
2020/12/24 04:02:27;;;;;;;;;;;9.60;76.30;;;;;;5013332;28;19930;-47
2020/12/24 04:04:54;;;;;;;;;;;9.50;76.10;;;;;;5011417;28;20058;-45
2020/12/24 04:07:20;;;;;;;;;;;9.50;76.00;;;;;;5014032;28;20365;-43
2020/12/24 04:09:49;;;;;;;;;;;9.50;76.30;;;;;;5011632;28;20012;-42
2020/12/24 04:12:16;;;;;;;;;;;9.50;76.40;;;;;;5012197;28;20012;-43
2020/12/24 04:14:43;;;;;;;;;;;9.50;76.20;;;;;;5014065;28;19925;-43
2020/12/24 04:17:10;;;;;;;;;;;9.50;76.50;;;;;;5011114;28;19929;-46
2020/12/24 04:19:37;;;;;;;;;;;9.50;76.30;;;;;;5008895;28;19940;-46
2020/12/24 04:22:05;;;;;;;;;;;9.60;75.90;;;;;;5013631;28;20289;-44
2020/12/24 04:24:32;;;;;;;;;;;9.60;75.40;;;;;;5012390;28;20262;-44
2020/12/24 04:27:00;;;;;;;;;;;9.60;75.50;;;;;;5011662;28;19932;-44
2020/12/24 04:29:27;;;;;;;;;;;9.60;76.10;;;;;;5011127;28;21952;-45
2020/12/24 04:31:54;;;;;;;;;;;9.60;76.20;;;;;;5014209;28;20031;-44
2020/12/24 04:34:22;;;;;;;;;;;9.50;75.50;;;;;;5026613;28;19929;-44
2020/12/24 04:36:50;;;;;;;;;;;9.50;75.60;;;;;;5016965;28;19987;-44
2020/12/24 04:39:17;;;;;;;;;;;9.50;75.80;;;;;;5011745;28;19953;-43
2020/12/24 04:41:46;;;;;;;;;;;9.60;76.10;;;;;;5011470;28;19925;-43
2020/12/24 04:44:13;;;;;;;;;;;9.60;76.20;;;;;;5013206;28;19933;-44
2020/12/24 04:46:42;;;;;;;;;;;9.60;76.20;;;;;;5013579;28;19925;-43
2020/12/24 04:49:10;;;;;;;;;;;9.60;76.30;;;;;;5014225;28;21747;-46
2020/12/24 04:51:36;;;;;;;;;;;9.60;76.30;;;;;;5011814;28;19952;-44
2020/12/24 04:54:06;;;;;;;;;;;9.70;76.20;;;;;;5014922;28;20762;-45
2020/12/24 04:56:34;;;;;;;;;;;9.70;76.30;;;;;;5012503;28;19932;-45
2020/12/24 04:59:02;;;;;;;;;;;9.70;76.10;;;;;;5015771;28;20381;-44
2020/12/24 05:01:29;;;;;;;;;;;9.60;75.60;;;;;;5012314;28;19929;-43
2020/12/24 05:03:57;;;;;;;;;;;9.60;76.10;;;;;;5007379;28;20339;-45
2020/12/24 05:06:25;;;;;;;;;;;9.60;75.90;;;;;;5008870;28;20456;-45
2020/12/24 05:08:53;;;;;;;;;;;9.60;75.60;;;;;;5009838;28;19929;-45
2020/12/24 05:11:30;;;;;;;;;;;9.60;75.70;;;;;;5012047;28;20293;-45
2020/12/24 05:14:14;;;;;;;;;;;9.60;75.70;;;;;;5009549;28;20064;-45
2020/12/24 05:17:01;;;;;;;;;;;9.60;75.40;;;;;;5011443;28;20354;-45
2020/12/24 05:19:31;;;;;;;;;;;9.60;75.70;;;;;;5014537;28;19925;-46
2020/12/24 05:22:09;;;;;;;;;;;9.50;75.70;;;;;;5007704;28;19940;-43
2020/12/24 05:24:36;;;;;;;;;;;9.50;75.60;;;;;;5011919;28;19925;-46
2020/12/24 05:27:13;;;;;;;;;;;9.50;75.20;;;;;;5010795;28;19933;-45
2020/12/24 05:29:41;;;;;;;;;;;9.40;74.10;;;;;;5012199;28;19937;-45
2020/12/24 05:32:09;;;;;;;;;;;9.50;74.70;;;;;;5008960;28;19933;-46
2020/12/24 05:34:36;;;;;;;;;;;9.50;75.00;;;;;;5011088;28;20296;-45
2020/12/24 05:37:10;;;;;;;;;;;9.40;74.90;;;;;;5007033;28;20011;-45
2020/12/24 05:39:40;;;;;;;;;;;9.30;75.50;;;;;;5009315;28;19961;-45
2020/12/24 05:42:07;;;;;;;;;;;9.40;76.30;;;;;;5009283;28;20301;-45
2020/12/24 05:44:35;;;;;;;;;;;9.40;76.90;;;;;;5011182;28;19962;-43
2020/12/24 05:47:02;;;;;;;;;;;9.40;76.90;;;;;;5023766;28;20269;-46
2020/12/24 05:49:29;;;;;;;;;;;9.40;77.40;;;;;;5011258;28;19933;-44
2020/12/24 05:52:01;;;;;;;;;;;9.50;78.00;;;;;;5010292;28;19932;-42
2020/12/24 05:54:30;;;;;;;;;;;9.50;77.30;;;;;;5011080;28;19933;-43
2020/12/24 05:56:58;;;;;;;;;;;9.50;77.50;;;;;;5010368;28;19933;-45
2020/12/24 05:59:25;;;;;;;;;;;9.50;77.80;;;;;;5011173;28;20328;-43
2020/12/24 06:01:56;;;;;;;;;;;9.50;78.20;;;;;;5006188;28;20009;-43
2020/12/24 06:04:52;;;;;;;;;;;9.50;78.60;;;;;;5009694;28;19932;-44
2020/12/24 06:07:19;;;;;;;;;;;9.40;77.60;;;;;;5008091;28;20392;-44
2020/12/24 06:09:47;;;;;;;;;;;9.30;78.10;;;;;;5012843;28;19937;-45
2020/12/24 06:12:19;;;;;;;;;;;9.30;77.50;;;;;;5010975;28;20286;-44
2020/12/24 06:14:57;;;;;;;;;;;9.30;78.30;;;;;;5011093;28;19979;-44
2020/12/24 06:17:25;;;;;;;;;;;9.10;78.50;;;;;;5007184;28;19932;-44
2020/12/24 06:19:52;;;;;;;;;;;9.10;78.50;;;;;;5010925;28;20333;-43
2020/12/24 06:22:20;;;;;;;;;;;9.10;78.00;;;;;;5009128;28;20677;-44
2020/12/24 06:24:54;;;;;;;;;;;9.10;78.50;;;;;;5011657;28;20429;-43
2020/12/24 06:27:32;;;;;;;;;;;9.00;79.10;;;;;;5009605;28;19926;-44
2020/12/24 06:30:19;;;;;;;;;;;9.10;79.40;;;;;;5011260;28;19933;-44
2020/12/24 06:32:48;;;;;;;;;;;9.10;79.20;;;;;;5013519;28;19929;-44
2020/12/24 06:35:34;;;;;;;;;;;9.10;79.50;;;;;;5012374;28;19929;-44
2020/12/24 06:38:06;;;;;;;;;;;9.10;79.60;;;;;;5024902;28;19929;-44
2020/12/24 06:40:36;;;;;;;;;;;9.00;79.50;;;;;;5017040;28;19926;-44
2020/12/24 06:43:03;;;;;;;;;;;8.90;79.60;;;;;;5012813;28;20370;-43
2020/12/24 06:45:35;;;;;;;;;;;8.90;79.70;;;;;;5012292;28;20015;-43
2020/12/24 06:48:29;;;;;;;;;;;8.90;79.90;;;;;;5012517;28;20422;-43
2020/12/24 06:51:01;;;;;;;;;;;8.90;80.20;;;;;;5016187;28;19933;-43
2020/12/24 06:53:30;;;;;;;;;;;8.90;80.40;;;;;;5013348;28;19961;-44
2020/12/24 06:56:09;;;;;;;;;;;8.80;80.20;;;;;;5013189;28;19943;-43
2020/12/24 06:58:37;;;;;;;;;;;8.80;80.50;;;;;;5012702;28;19940;-43
2020/12/24 07:01:05;;;;;;;;;;;8.90;80.80;;;;;;5013046;28;20083;-43
2020/12/24 07:03:35;;;;;;;;;;;8.90;80.60;;;;;;5013251;28;19925;-44
2020/12/24 07:06:03;;;;;;;;;;;8.90;81.20;;;;;;5015949;28;19955;-44
2020/12/24 07:08:34;;;;;;;;;;;8.90;81.10;;;;;;5012353;28;20063;-44
2020/12/24 07:11:02;;;;;;;;;;;8.90;81.20;;;;;;5011876;28;19979;-43
2020/12/24 07:13:36;;;;;;;;;;;8.90;81.40;;;;;;5015450;28;19929;-43
2020/12/24 07:16:05;;;;;;;;;;;9.00;81.20;;;;;;4995412;28;19929;-44
2020/12/24 07:18:34;;;;;;;;;;;8.90;81.10;;;;;;4990682;28;19934;-44
2020/12/24 07:21:03;;;;;;;;;;;8.90;81.40;;;;;;4992144;28;19980;-44
2020/12/24 07:23:32;;;;;;;;;;;8.90;81.30;;;;;;4995701;28;20008;-43
2020/12/24 07:26:02;;;;;;;;;;;8.90;81.30;;;;;;4992429;28;20020;-43
2020/12/24 07:28:30;;;;;;;;;;;8.80;81.60;;;;;;4994857;28;19929;-44
2020/12/24 07:31:01;;;;;;;;;;;8.80;81.60;;;;;;4997021;28;19938;-44
2020/12/24 07:33:29;;;;;;;;;;;8.70;81.40;;;;;;4992268;28;19933;-44
2020/12/24 07:35:57;;;;;;;;;;;8.70;82.10;;;;;;4992172;28;20018;-44
2020/12/24 07:38:25;;;;;;;;;;;8.70;82.70;;;;;;4996883;28;19952;-43
2020/12/24 07:40:52;;;;;;;;;;;8.70;82.40;;;;;;4994433;28;19929;-44
2020/12/24 07:43:20;;;;;;;;;;;8.70;82.40;;;;;;4993522;28;20289;-44
2020/12/24 07:45:47;;;;;;;;;;;8.70;82.40;;;;;;4989408;28;19925;-44
2020/12/24 07:48:15;;;;;;;;;;;8.80;82.30;;;;;;4991504;28;19933;-44
2020/12/24 07:50:44;;;;;;;;;;;8.80;82.40;;;;;;4990703;28;19933;-43
2020/12/24 07:53:23;;;;;;;;;;;8.90;82.80;;;;;;4991386;28;21058;-43
2020/12/24 07:55:50;;;;;;;;;;;8.90;82.30;;;;;;4990841;28;19925;-44
2020/12/24 07:58:18;;;;;;;;;;;8.90;82.20;;;;;;4993095;28;19929;-44
2020/12/24 08:00:47;;;;;;;;;;;8.90;82.00;;;;;;4994956;28;19929;-44
2020/12/24 08:03:16;;;;;;;;;;;8.80;82.30;;;;;;4993020;28;20016;-44
2020/12/24 08:05:43;;;;;;;;;;;8.80;82.40;;;;;;4993122;28;20551;-44
2020/12/24 08:08:11;;;;;;;;;;;8.70;82.70;;;;;;4993531;28;19934;-44
2020/12/24 08:10:42;;;;;;;;;;;8.70;82.30;;;;;;4992248;28;19976;-44
2020/12/24 08:13:10;;;;;;;;;;;8.70;82.00;;;;;;4990694;28;20339;-43
2020/12/24 08:15:44;;;;;;;;;;;8.70;81.40;;;;;;4992486;28;20398;-43
2020/12/24 08:18:12;;;;;;;;;;;8.60;81.60;;;;;;4991380;28;19933;-44
2020/12/24 08:20:47;;;;;;;;;;;8.60;81.80;;;;;;5001619;28;20293;-43
2020/12/24 08:23:33;;;;;;;;;;;8.60;81.50;;;;;;4995953;28;20437;-43
2020/12/24 08:26:01;;;;;;;;;;;8.60;81.50;;;;;;4987827;28;19929;-43
2020/12/24 08:28:30;;;;;;;;;;;8.60;81.60;;;;;;4992453;28;19957;-44
2020/12/24 08:30:59;;;;;;;;;;;8.70;81.30;;;;;;4991994;28;19934;-44
2020/12/24 08:33:26;;;;;;;;;;;8.70;80.90;;;;;;4994546;28;19933;-44
2020/12/24 08:36:11;;;;;;;;;;;8.70;80.70;;;;;;4994114;28;20382;-44
2020/12/24 08:38:38;;;;;;;;;;;8.70;81.50;;;;;;4994526;28;19944;-44
2020/12/24 08:41:06;;;;;;;;;;;8.60;80.20;;;;;;4992047;28;19997;-44
2020/12/24 08:43:34;;;;;;;;;;;8.60;80.40;;;;;;4991821;28;19926;-44
2020/12/24 08:46:00;;;;;;;;;;;8.60;80.60;;;;;;4997270;28;20021;-44
2020/12/24 08:48:34;;;;;;;;;;;8.60;80.10;;;;;;4990765;28;19934;-44
2020/12/24 08:51:15;;;;;;;;;;;8.60;80.30;;;;;;4992984;28;20020;-44
2020/12/24 08:54:05;;;;;;;;;;;8.70;80.80;;;;;;4992646;28;19929;-44
2020/12/24 08:56:33;;;;;;;;;;;8.70;80.40;;;;;;4994870;28;20460;-44
2020/12/24 08:59:00;;;;;;;;;;;8.70;79.80;;;;;;4993633;28;19933;-44
2020/12/24 09:01:28;;;;;;;;;;;8.80;79.80;;;;;;4990938;28;20313;-44
2020/12/24 09:04:09;;;;;;;;;;;8.80;80.30;;;;;;4992530;28;20024;-43
2020/12/24 09:06:36;;;;;;;;;;;8.80;80.10;;;;;;5010414;28;20258;-44
2020/12/24 09:09:04;;;;;;;;;;;8.80;80.30;;;;;;5014482;28;19933;-43
2020/12/24 09:11:32;;;;;;;;;;;8.80;80.50;;;;;;5011750;28;19963;-43
2020/12/24 09:14:00;;;;;;;;;;;8.80;80.50;;;;;;5010232;28;20011;-44
2020/12/24 09:16:29;;;;;;;;;;;8.80;80.40;;;;;;5010355;28;20439;-44
2020/12/24 09:19:02;;;;;;;;;;;8.80;80.60;;;;;;5012144;28;20028;-43
2020/12/24 09:21:33;;;;;;;;;;;8.80;80.70;;;;;;5013531;28;20104;-42
2020/12/24 09:24:10;;;;;;;;;;;8.90;80.70;;;;;;5008334;28;19959;-43
2020/12/24 09:26:42;;;;;;;;;;;8.90;80.50;;;;;;5011134;28;20023;-42
2020/12/24 09:29:10;;;;;;;;;;;8.90;80.60;;;;;;5009098;28;19929;-44
2020/12/24 09:31:38;;;;;;;;;;;9.00;80.70;;;;;;5015544;28;20564;-44
2020/12/24 09:34:06;;;;;;;;;;;9.00;80.60;;;;;;5014879;28;19929;-44
2020/12/24 09:36:35;;;;;;;;;;;9.00;80.70;;;;;;5011100;28;20594;-43
2020/12/24 09:39:02;;;;;;;;;;;9.00;80.70;;;;;;5012862;28;20324;-44
2020/12/24 09:41:29;;;;;;;;;;;9.10;80.80;;;;;;5011555;28;20611;-43
2020/12/24 09:43:57;;;;;;;;;;;9.10;80.80;;;;;;5009422;28;19933;-44
2020/12/24 09:46:27;;;;;;;;;;;9.10;80.90;;;;;;5012646;28;20021;-44
2020/12/24 09:48:54;;;;;;;;;;;9.10;80.50;;;;;;5011507;28;19975;-44
2020/12/24 09:51:21;;;;;;;;;;;9.10;80.40;;;;;;5010438;28;19995;-43
2020/12/24 09:53:48;;;;;;;;;;;9.10;80.00;;;;;;5014160;28;19983;-44
2020/12/24 09:56:19;;;;;;;;;;;9.20;80.20;;;;;;5013834;28;19936;-44
2020/12/24 09:58:46;;;;;;;;;;;9.10;80.30;;;;;;5010261;28;19925;-43
2020/12/24 10:01:15;;;;;;;;;;;9.20;80.50;;;;;;5009087;28;19933;-44
2020/12/24 10:03:42;;;;;;;;;;;9.20;80.50;;;;;;5010905;28;19933;-44
2020/12/24 10:06:10;;;;;;;;;;;9.30;79.70;;;;;;5012338;28;20024;-43
2020/12/24 10:08:38;;;;;;;;;;;9.20;79.80;;;;;;5012701;28;20356;-44
2020/12/24 10:11:10;;;;;;;;;;;9.30;79.80;;;;;;5013506;28;20565;-44
2020/12/24 10:13:39;;;;;;;;;;;9.30;80.10;;;;;;5015065;28;20289;-44
2020/12/24 10:16:06;;;;;;;;;;;9.30;79.80;;;;;;5010714;28;19925;-44
2020/12/24 10:18:34;;;;;;;;;;;9.30;79.90;;;;;;5010180;28;19960;-44
2020/12/24 10:21:01;;;;;;;;;;;9.30;79.70;;;;;;5010419;28;19964;-43
2020/12/24 10:23:29;;;;;;;;;;;9.30;79.70;;;;;;5012057;28;19925;-44
2020/12/24 10:25:56;;;;;;;;;;;9.30;80.20;;;;;;5014866;28;19929;-43
2020/12/24 10:28:27;;;;;;;;;;;9.30;80.30;;;;;;5015123;28;19926;-43
2020/12/24 10:30:53;;;;;;;;;;;9.30;80.40;;;;;;5017327;28;20024;-43
2020/12/24 10:33:21;;;;;;;;;;;9.40;80.50;;;;;;5013513;28;19929;-43
2020/12/24 10:35:49;;;;;;;;;;;9.50;79.80;;;;;;5015297;28;19968;-44
2020/12/24 10:38:19;;;;;;;;;;;9.50;79.60;;;;;;5012393;28;20028;-44
2020/12/24 10:40:46;;;;;;;;;;;9.50;78.90;;;;;;5014920;28;19929;-44
2020/12/24 10:43:16;;;;;;;;;;;9.50;79.30;;;;;;5013742;28;20364;-44
2020/12/24 10:45:43;;;;;;;;;;;9.50;79.70;;;;;;5016828;28;19929;-43
2020/12/24 10:48:11;;;;;;;;;;;9.60;79.70;;;;;;5013114;28;19929;-44
2020/12/24 10:50:40;;;;;;;;;;;9.60;79.00;;;;;;5020447;28;19925;-44
2020/12/24 10:53:07;;;;;;;;;;;9.60;79.50;;;;;;5015289;28;20036;-43
2020/12/24 10:55:35;;;;;;;;;;;9.70;79.40;;;;;;5012963;28;20019;-43
2020/12/24 10:58:02;;;;;;;;;;;9.70;78.90;;;;;;5013990;28;19933;-44
2020/12/24 11:00:30;;;;;;;;;;;9.70;79.10;;;;;;5019403;28;20023;-43
2020/12/24 11:03:00;;;;;;;;;;;9.80;79.20;;;;;;5011898;28;19925;-43
2020/12/24 11:05:27;;;;;;;;;;;9.80;79.40;;;;;;5014619;28;19925;-44
2020/12/24 11:07:54;;;;;;;;;;;9.90;78.90;;;;;;5028162;28;19933;-44
2020/12/24 11:10:22;;;;;;;;;;;9.90;78.70;;;;;;5013285;28;20028;-43
2020/12/24 11:12:49;;;;;;;;;;;10.00;79.00;;;;;;5012087;28;19931;-43
2020/12/24 11:15:16;;;;;;;;;;;10.10;79.20;;;;;;5020054;28;19926;-44
2020/12/24 11:17:43;;;;;;;;;;;10.20;78.70;;;;;;5014858;28;20351;-43
2020/12/24 11:20:10;;;;;;;;;;;10.20;78.20;;;;;;5015681;28;19929;-44
2020/12/24 11:22:37;;;;;;;;;;;10.30;77.50;;;;;;5011793;28;19925;-41
2020/12/24 11:25:04;;;;;;;;;;;10.30;77.10;;;;;;5013920;28;19937;-43
2020/12/24 11:27:31;;;;;;;;;;;10.30;76.40;;;;;;5014259;28;20016;-43
2020/12/24 11:29:59;;;;;;;;;;;10.30;76.30;;;;;;5010471;28;20419;-44
2020/12/24 11:32:28;;;;;;;;;;;10.30;76.30;;;;;;5012751;28;19933;-44
2020/12/24 11:34:55;;;;;;;;;;;10.30;75.90;;;;;;5012156;28;19932;-44
2020/12/24 11:37:23;;;;;;;;;;;10.30;76.00;;;;;;5015307;28;20016;-44
2020/12/24 11:39:50;;;;;;;;;;;10.30;76.00;;;;;;5013658;28;20012;-43
2020/12/24 11:42:18;;;;;;;;;;;10.30;75.70;;;;;;5014902;28;20023;-44
2020/12/24 11:44:45;;;;;;;;;;;10.30;75.90;;;;;;5015650;28;19929;-44
2020/12/24 11:47:12;;;;;;;;;;;10.20;75.80;;;;;;5013061;28;20392;-44
2020/12/24 11:49:39;;;;;;;;;;;10.20;75.70;;;;;;5009337;28;19929;-43
2020/12/24 11:52:07;;;;;;;;;;;10.20;75.80;;;;;;5012860;28;19961;-42
2020/12/24 11:54:35;;;;;;;;;;;10.30;75.50;;;;;;5011259;28;19932;-44
2020/12/24 11:57:04;;;;;;;;;;;10.30;75.10;;;;;;5012208;28;20305;-42
2020/12/24 11:59:31;;;;;;;;;;;10.30;75.00;;;;;;5013669;28;19968;-42
2020/12/24 12:01:58;;;;;;;;;;;10.30;75.20;;;;;;5013003;28;19972;-43
2020/12/24 12:04:27;;;;;;;;;;;10.40;74.80;;;;;;5010230;28;19932;-43
2020/12/24 12:06:54;;;;;;;;;;;10.40;74.20;;;;;;5009244;28;19946;-43
2020/12/24 12:09:24;;;;;;;;;;;10.40;74.30;;;;;;5010467;28;19925;-43
2020/12/24 12:11:52;;;;;;;;;;;10.40;73.30;;;;;;5014907;28;19929;-42
2020/12/24 12:14:20;;;;;;;;;;;10.40;73.30;;;;;;5010391;28;19975;-42
2020/12/24 12:16:48;;;;;;;;;;;10.40;72.70;;;;;;5014766;28;19925;-42
2020/12/24 12:19:14;;;;;;;;;;;10.40;72.10;;;;;;5013086;28;20019;-44
2020/12/24 12:21:41;;;;;;;;;;;10.40;72.10;;;;;;5015923;28;19941;-44
2020/12/24 12:24:08;;;;;;;;;;;10.30;72.50;;;;;;5015221;28;19929;-43
2020/12/24 12:26:35;;;;;;;;;;;10.30;72.90;;;;;;5012889;28;19925;-45
2020/12/24 12:29:03;;;;;;;;;;;10.30;72.70;;;;;;5014146;28;19925;-44
2020/12/24 12:31:29;;;;;;;;;;;10.30;72.40;;;;;;5017697;28;20367;-44
2020/12/24 12:33:56;;;;;;;;;;;10.20;72.50;;;;;;5014618;28;19976;-43
2020/12/24 12:36:23;;;;;;;;;;;10.10;73.30;;;;;;5013932;28;20413;-44
2020/12/24 12:38:50;;;;;;;;;;;10.10;74.20;;;;;;5014965;28;20227;-44
2020/12/24 12:41:18;;;;;;;;;;;10.10;74.80;;;;;;5010550;28;19925;-43
2020/12/24 12:43:48;;;;;;;;;;;10.10;75.20;;;;;;5009470;28;19933;-44
2020/12/24 12:46:19;;;;;;;;;;;10.10;76.20;;;;;;5011338;28;20452;-43
2020/12/24 12:48:47;;;;;;;;;;;10.10;76.50;;;;;;5013155;28;19929;-43
2020/12/24 12:51:14;;;;;;;;;;;10.20;76.80;;;;;;5011577;28;19929;-44
2020/12/24 12:53:42;;;;;;;;;;;10.20;76.90;;;;;;5009895;28;20024;-44
2020/12/24 12:56:29;;;;;;;;;;;10.20;76.60;;;;;;5013169;28;19932;-44
2020/12/24 12:58:57;;;;;;;;;;;10.20;76.80;;;;;;5010781;28;20450;-44
2020/12/24 13:01:25;;;;;;;;;;;10.20;77.00;;;;;;5010112;28;19979;-43
2020/12/24 13:04:10;;;;;;;;;;;10.20;77.50;;;;;;5007720;28;19988;-44
2020/12/24 13:06:38;;;;;;;;;;;10.20;77.50;;;;;;5011623;28;19999;-44
2020/12/24 13:09:06;;;;;;;;;;;10.20;77.10;;;;;;5008835;28;19930;-43
2020/12/24 13:11:33;;;;;;;;;;;10.20;76.80;;;;;;5009968;28;20024;-44
2020/12/24 13:14:01;;;;;;;;;;;10.10;76.20;;;;;;5009199;28;19965;-43
2020/12/24 13:16:29;;;;;;;;;;;10.10;76.60;;;;;;5009589;28;19929;-44
2020/12/24 13:18:57;;;;;;;;;;;10.10;76.50;;;;;;5009106;28;21374;-44
2020/12/24 13:21:25;;;;;;;;;;;10.20;75.90;;;;;;5013315;28;19933;-43
2020/12/24 13:23:52;;;;;;;;;;;10.20;75.60;;;;;;5008465;28;19932;-44
2020/12/24 13:26:19;;;;;;;;;;;10.30;75.30;;;;;;5012340;28;19929;-44
2020/12/24 13:28:46;;;;;;;;;;;10.30;75.10;;;;;;5010661;28;19935;-45
2020/12/24 13:31:13;;;;;;;;;;;10.20;74.70;;;;;;5012769;28;20584;-45
2020/12/24 13:33:40;;;;;;;;;;;10.20;75.00;;;;;;5010965;28;19925;-43
2020/12/24 13:36:08;;;;;;;;;;;10.30;75.30;;;;;;5009090;28;19925;-44
2020/12/24 13:38:36;;;;;;;;;;;10.30;75.00;;;;;;5009768;28;20496;-45
2020/12/24 13:41:03;;;;;;;;;;;10.30;74.70;;;;;;5012381;28;20436;-45
2020/12/24 13:43:32;;;;;;;;;;;10.40;74.70;;;;;;5012386;28;20024;-44
2020/12/24 13:46:00;;;;;;;;;;;10.40;74.60;;;;;;5010118;28;19936;-44
2020/12/24 13:48:28;;;;;;;;;;;10.40;74.50;;;;;;5011973;28;19936;-43
2020/12/24 13:51:00;;;;;;;;;;;10.40;74.20;;;;;;5010964;28;19937;-44
2020/12/24 13:53:27;;;;;;;;;;;10.40;74.00;;;;;;5014140;28;19930;-44
2020/12/24 13:55:57;;;;;;;;;;;10.40;74.30;;;;;;5007910;28;20428;-44
2020/12/24 13:58:24;;;;;;;;;;;10.40;74.50;;;;;;5015585;28;20290;-45
2020/12/24 14:00:50;;;;;;;;;;;10.50;74.80;;;;;;5029046;28;20451;-44
2020/12/24 14:03:17;;;;;;;;;;;10.50;74.30;;;;;;5015890;28;20007;-44
2020/12/24 14:05:44;;;;;;;;;;;10.50;74.60;;;;;;5014149;28;19976;-44
2020/12/24 14:08:11;;;;;;;;;;;10.50;74.60;;;;;;5016317;28;19929;-44
2020/12/24 14:10:38;;;;;;;;;;;10.50;74.70;;;;;;5014894;28;19933;-43
2020/12/24 14:13:05;;;;;;;;;;;10.50;74.90;;;;;;5016760;28;20748;-44
2020/12/24 14:15:32;;;;;;;;;;;10.40;75.10;;;;;;5016151;28;19935;-44
2020/12/24 14:18:01;;;;;;;;;;;10.40;75.00;;;;;;5019525;28;19964;-44
2020/12/24 14:20:27;;;;;;;;;;;10.40;75.20;;;;;;5016212;28;19936;-44
2020/12/24 14:22:56;;;;;;;;;;;10.30;74.90;;;;;;5014901;28;19933;-44
2020/12/24 14:25:22;;;;;;;;;;;10.30;75.10;;;;;;5015598;28;19932;-44
2020/12/24 14:27:49;;;;;;;;;;;10.30;75.00;;;;;;5017557;28;20373;-44
2020/12/24 14:30:15;;;;;;;;;;;10.20;75.30;;;;;;5028730;28;19925;-43
2020/12/24 14:32:41;;;;;;;;;;;10.20;75.40;;;;;;5010999;28;20442;-43